Terminal Aerodrome Forecast
Issued by NWS Jackson, KY

Home | Current Version | Previous Version | Text Only | Print | Product List | Glossary On
Versions: 1 2 3 4 5 6 7 8 9 10 11 12 13 14 15 16 17 18 19 20 21
000
FTUS43 KJKL 211120
TAFJKL
TAF
KJKL 211120Z 2112/2212 20004KT P6SM SCT200
     FM220100 13003KT P6SM VCSH OVC060
     FM220300 14002KT P6SM -SHRA OVC045
     FM220600 14003KT P6SM -SHRA OVC030=

USA.gov is the U.S. government's official web portal to all federal, state and local government web resources and services.